Time;durP1;ratioP1;P1;durP2;ratioP2;P2;SDS_P1;SDS_P2;PMS_P1;PMS_P2;Temp;Humidity;BMP_temperature;BMP_pressure;BME280_temperature;BME280_humidity;BME280_pressure;Samples;Min_cycle;Max_cycle;Signal;HPM_P1;HPM_P2
2022/04/24 00:00:13;;;;;;;50.05;24.05;;;14.60;73.10;;;;;;5098259;28;20028;-77
2022/04/24 00:02:38;;;;;;;50.08;26.63;;;14.60;73.00;;;;;;5089729;28;20033;-78
2022/04/24 00:05:05;;;;;;;45.60;25.02;;;14.60;73.10;;;;;;5076714;28;20174;-78
2022/04/24 00:07:31;;;;;;;53.20;25.45;;;14.50;73.40;;;;;;5078045;28;20654;-78
2022/04/24 00:09:57;;;;;;;58.55;26.15;;;14.40;74.00;;;;;;5077846;28;20052;-78
2022/04/24 00:12:22;;;;;;;53.65;24.17;;;14.50;73.90;;;;;;5077782;28;20451;-78
2022/04/24 00:14:48;;;;;;;50.80;26.30;;;14.40;74.00;;;;;;5077865;28;20570;-78
2022/04/24 00:17:16;;;;;;;45.70;24.58;;;14.50;73.90;;;;;;5076646;28;20028;-78
2022/04/24 00:19:42;;;;;;;50.45;25.33;;;14.50;74.00;;;;;;5077438;28;20017;-78
2022/04/24 00:22:09;;;;;;;57.67;26.27;;;14.30;74.40;;;;;;5077789;28;20088;-78
2022/04/24 00:24:35;;;;;;;49.88;25.90;;;14.30;74.60;;;;;;5077602;28;20017;-78
2022/04/24 00:27:01;;;;;;;48.65;26.50;;;14.20;75.30;;;;;;5077656;28;20050;-78
2022/04/24 00:29:26;;;;;;;44.65;24.92;;;14.30;75.10;;;;;;5076565;28;20032;-78
2022/04/24 00:31:52;;;;;;;49.63;26.02;;;14.20;75.00;;;;;;5080017;28;20033;-78
2022/04/24 00:34:18;;;;;;;53.10;26.55;;;14.30;75.20;;;;;;5085484;28;20115;-78
2022/04/24 00:36:45;;;;;;;49.88;25.48;;;14.30;74.60;;;;;;5077445;28;20076;-78
2022/04/24 00:39:11;;;;;;;49.13;26.08;;;14.20;75.10;;;;;;5077136;28;20457;-78
2022/04/24 00:41:49;;;;;;;50.90;26.67;;;14.30;75.00;;;;;;5075962;28;20032;-78
2022/04/24 00:44:16;;;;;;;47.63;25.55;;;14.30;74.90;;;;;;5076964;28;20050;-78
2022/04/24 00:46:53;;;;;;;53.13;26.77;;;14.30;74.30;;;;;;5076253;28;20021;-78
2022/04/24 00:49:19;;;;;;;44.75;24.38;;;14.30;74.30;;;;;;5092040;28;20032;-78
2022/04/24 00:51:46;;;;;;;46.85;24.00;;;14.50;73.90;;;;;;5092613;28;20052;-78
2022/04/24 00:54:12;;;;;;;54.15;26.92;;;14.40;74.10;;;;;;5077188;28;20043;-78
2022/04/24 00:56:39;;;;;;;49.28;23.60;;;14.50;73.70;;;;;;5092590;28;20070;-78
2022/04/24 00:59:07;;;;;;;55.08;26.92;;;14.60;73.30;;;;;;5079406;28;20028;-78
2022/04/24 01:01:33;;;;;;;57.60;27.58;;;14.50;73.40;;;;;;5096046;28;20024;-78
2022/04/24 01:04:01;;;;;;;52.17;24.42;;;14.60;73.20;;;;;;5097260;28;20016;-78
2022/04/24 01:06:31;;;;;;;43.33;24.05;;;14.50;73.20;;;;;;5096069;28;20110;-78
2022/04/24 01:09:14;;;;;;;46.05;22.50;;;14.50;73.20;;;;;;5095709;28;20035;-78
2022/04/24 01:11:41;;;;;;;53.80;25.65;;;14.50;73.20;;;;;;5096963;28;20040;-78
2022/04/24 01:14:08;;;;;;;48.30;22.92;;;14.60;72.70;;;;;;5095680;28;20032;-78
2022/04/24 01:16:35;;;;;;;52.33;24.85;;;14.60;72.80;;;;;;5086490;28;20114;-78
2022/04/24 01:19:01;;;;;;;47.35;25.20;;;14.30;73.80;;;;;;5075008;28;20031;-78
2022/04/24 01:21:27;;;;;;;48.13;23.30;;;14.30;73.80;;;;;;5075113;28;20028;-78
2022/04/24 01:23:53;;;;;;;48.90;24.20;;;14.40;73.40;;;;;;5075103;28;20024;-77
2022/04/24 01:26:18;;;;;;;53.60;25.38;;;14.30;74.20;;;;;;5094419;28;20029;-78
2022/04/24 01:28:44;;;;;;;48.83;24.40;;;14.20;74.10;;;;;;5090477;28;20065;-78
2022/04/24 01:31:10;;;;;;;54.40;24.55;;;14.30;73.80;;;;;;5075273;28;20102;-78
2022/04/24 01:33:36;;;;;;;53.85;26.33;;;14.30;73.60;;;;;;5076427;28;20017;-77
2022/04/24 01:36:02;;;;;;;50.13;26.13;;;14.30;73.50;;;;;;5076042;28;20414;-78
2022/04/24 01:38:30;;;;;;;49.88;25.75;;;14.40;73.40;;;;;;5076617;28;20145;-78
2022/04/24 01:40:56;;;;;;;49.60;24.55;;;14.40;73.50;;;;;;5076286;28;20021;-78
2022/04/24 01:43:22;;;;;;;51.80;25.73;;;14.30;74.00;;;;;;5074859;28;20471;-78
2022/04/24 01:45:48;;;;;;;48.78;23.92;;;14.30;73.80;;;;;;5076175;28;20031;-78
2022/04/24 01:48:14;;;;;;;51.10;25.50;;;14.30;73.80;;;;;;5089223;28;20035;-78
2022/04/24 01:50:39;;;;;;;47.08;23.95;;;14.30;73.90;;;;;;5079619;28;20053;-78
2022/04/24 01:53:05;;;;;;;42.88;22.13;;;14.30;73.60;;;;;;5075897;28;20021;-78
2022/04/24 01:55:31;;;;;;;44.35;24.42;;;14.30;73.60;;;;;;5075327;28;20040;-78
2022/04/24 01:57:56;;;;;;;49.42;22.92;;;14.40;73.30;;;;;;5086107;28;20034;-78
2022/04/24 02:00:22;;;;;;;46.38;23.75;;;14.50;73.10;;;;;;5096019;28;20077;-78
2022/04/24 02:02:48;;;;;;;54.95;24.02;;;14.60;72.90;;;;;;5095873;28;20054;-78
2022/04/24 02:05:14;;;;;;;45.42;22.88;;;14.50;72.80;;;;;;5096004;28;20024;-78
2022/04/24 02:07:40;;;;;;;44.63;22.45;;;14.30;73.70;;;;;;5094741;28;20027;-78
2022/04/24 02:10:06;;;;;;;51.55;24.65;;;14.30;73.60;;;;;;5087027;28;20023;-78
2022/04/24 02:12:31;;;;;;;45.35;22.77;;;14.30;73.50;;;;;;5075388;28;20081;-78
2022/04/24 02:14:57;;;;;;;52.63;23.85;;;14.30;73.40;;;;;;5075488;28;20116;-78
2022/04/24 02:17:23;;;;;;;49.85;23.85;;;14.30;73.80;;;;;;5075522;28;20469;-78
2022/04/24 02:19:49;;;;;;;48.40;23.70;;;14.30;73.80;;;;;;5090757;28;20483;-78
2022/04/24 02:22:14;;;;;;;51.28;25.30;;;14.30;73.50;;;;;;5095695;28;20819;-78
2022/04/24 02:24:40;;;;;;;42.75;23.13;;;14.30;73.40;;;;;;5089352;28;20032;-78
2022/04/24 02:27:06;;;;;;;47.15;22.38;;;14.40;73.30;;;;;;5073962;28;20028;-78
2022/04/24 02:29:33;;;;;;;43.72;22.65;;;14.40;73.40;;;;;;5075285;28;20368;-78
2022/04/24 02:31:59;;;;;;;43.65;24.45;;;14.40;73.00;;;;;;5073931;28;20029;-77
2022/04/24 02:34:26;;;;;;;51.15;23.42;;;14.40;73.20;;;;;;5075157;28;20017;-78
2022/04/24 02:36:52;;;;;;;48.03;24.58;;;14.40;73.10;;;;;;5075252;28;20037;-78
2022/04/24 02:39:18;;;;;;;51.65;23.45;;;14.40;73.10;;;;;;5075141;28;20112;-78
2022/04/24 02:41:43;;;;;;;48.08;23.48;;;14.40;73.10;;;;;;5086534;28;20031;-78
2022/04/24 02:44:09;;;;;;;48.55;22.38;;;14.40;73.20;;;;;;5094060;28;20059;-78
2022/04/24 02:46:37;;;;;;;43.45;23.17;;;14.40;73.20;;;;;;5081782;28;20028;-78
2022/04/24 02:49:02;;;;;;;48.80;24.25;;;14.40;73.20;;;;;;5093486;28;20020;-78
2022/04/24 02:51:28;;;;;;;48.25;23.98;;;14.30;73.80;;;;;;5090863;28;20043;-78
2022/04/24 02:53:54;;;;;;;44.83;25.20;;;14.30;73.50;;;;;;5075126;28;20060;-78
2022/04/24 02:56:19;;;;;;;41.92;21.75;;;14.40;73.20;;;;;;5074757;28;20441;-78
2022/04/24 02:58:45;;;;;;;48.15;23.15;;;14.40;73.00;;;;;;5073831;28;20024;-78
2022/04/24 03:01:11;;;;;;;42.00;21.55;;;14.30;73.30;;;;;;5094952;28;20024;-78
2022/04/24 03:03:38;;;;;;;47.75;23.08;;;14.30;73.60;;;;;;5079790;28;20025;-78
2022/04/24 03:06:04;;;;;;;45.58;23.10;;;14.30;73.90;;;;;;5073687;28;20647;-78
2022/04/24 03:08:30;;;;;;;48.75;24.73;;;14.30;73.90;;;;;;5077817;28;20050;-78
2022/04/24 03:10:56;;;;;;;48.35;24.98;;;14.20;74.60;;;;;;5078966;28;20035;-78
2022/04/24 03:13:22;;;;;;;45.40;22.90;;;14.20;74.70;;;;;;5077797;28;20024;-78
2022/04/24 03:15:47;;;;;;;49.05;24.00;;;14.20;74.30;;;;;;5077708;28;20090;-78
2022/04/24 03:18:13;;;;;;;50.88;23.67;;;14.20;74.50;;;;;;5078918;28;20020;-78
2022/04/24 03:20:39;;;;;;;51.83;24.33;;;14.20;74.70;;;;;;5078832;28;20717;-78
2022/04/24 03:23:05;;;;;;;50.20;23.20;;;14.10;75.00;;;;;;5077596;28;20029;-78
2022/04/24 03:25:30;;;;;;;54.15;23.55;;;14.10;75.20;;;;;;5077230;28;20028;-77
2022/04/24 03:27:56;;;;;;;49.15;23.20;;;14.00;75.60;;;;;;5077469;28;20024;-78
2022/04/24 03:30:22;;;;;;;57.58;24.48;;;13.80;76.20;;;;;;5078633;28;21181;-78
2022/04/24 03:32:48;;;;;;;53.67;23.65;;;13.80;76.50;;;;;;5078684;28;20032;-78
2022/04/24 03:35:13;;;;;;;50.10;24.60;;;13.70;76.80;;;;;;5078599;28;20037;-78
2022/04/24 03:37:39;;;;;;;44.47;23.13;;;13.80;76.60;;;;;;5078669;28;20058;-77
2022/04/24 03:40:06;;;;;;;47.78;23.88;;;13.90;76.10;;;;;;5078450;28;20063;-78
2022/04/24 03:42:32;;;;;;;58.22;23.80;;;14.00;75.80;;;;;;5078174;28;20025;-78
2022/04/24 03:44:59;;;;;;;47.03;23.05;;;13.90;76.10;;;;;;5077039;28;20167;-78
2022/04/24 03:47:25;;;;;;;53.90;23.75;;;14.00;76.10;;;;;;5084830;28;20024;-78
2022/04/24 03:49:51;;;;;;;54.95;26.60;;;14.00;76.10;;;;;;5081038;28;20060;-78
2022/04/24 03:52:17;;;;;;;54.65;24.77;;;14.10;75.50;;;;;;5078130;28;20067;-78
2022/04/24 03:54:45;;;;;;;44.92;22.67;;;14.20;75.40;;;;;;5078094;28;20486;-77
2022/04/24 03:57:11;;;;;;;46.35;24.02;;;14.10;75.50;;;;;;5078158;28;20020;-78
2022/04/24 03:59:37;;;;;;;53.95;24.88;;;14.10;75.40;;;;;;5085243;28;20036;-77
2022/04/24 04:02:02;;;;;;;52.88;26.67;;;14.20;75.00;;;;;;5098095;28;20111;-78
2022/04/24 04:04:29;;;;;;;49.30;25.00;;;14.20;75.20;;;;;;5092925;28;20060;-78
2022/04/24 04:06:55;;;;;;;55.85;25.58;;;14.20;75.10;;;;;;5078031;28;20487;-78
2022/04/24 04:09:21;;;;;;;52.42;23.30;;;14.30;74.70;;;;;;5078370;28;20051;-78
2022/04/24 04:11:49;;;;;;;49.42;24.02;;;14.30;74.60;;;;;;5098240;28;20062;-78
2022/04/24 04:14:14;;;;;;;49.33;24.42;;;14.30;74.70;;;;;;5098192;28;20028;-78
2022/04/24 04:16:40;;;;;;;46.70;23.73;;;14.30;74.50;;;;;;5098104;28;20483;-79
2022/04/24 04:19:06;;;;;;;48.17;24.33;;;14.30;74.60;;;;;;5089552;28;20195;-79
2022/04/24 04:21:32;;;;;;;50.42;24.95;;;14.20;75.10;;;;;;5077452;28;20031;-79
2022/04/24 04:23:57;;;;;;;48.85;23.90;;;14.10;76.00;;;;;;5076372;28;20025;-79
2022/04/24 04:26:23;;;;;;;54.75;23.85;;;14.00;76.00;;;;;;5077578;28;20451;-79
2022/04/24 04:28:50;;;;;;;51.13;24.92;;;14.10;75.90;;;;;;5077601;28;20613;-79
2022/04/24 04:31:17;;;;;;;51.92;24.35;;;14.10;75.80;;;;;;5077701;28;20035;-79
2022/04/24 04:33:43;;;;;;;50.88;25.63;;;14.10;75.80;;;;;;5076217;28;20036;-79
2022/04/24 04:36:09;;;;;;;45.65;23.52;;;14.00;76.00;;;;;;5077477;28;20514;-79
2022/04/24 04:52:22;;;;;;;53.63;27.98;;;14.00;76.20;;;;;;5124431;27;20363;-77
2022/04/24 04:54:49;;;;;;;53.42;23.60;;;13.90;76.80;;;;;;5092795;28;20110;-79
2022/04/24 04:57:16;;;;;;;50.97;25.75;;;14.00;76.30;;;;;;5091435;28;20032;-76
2022/04/24 04:59:42;;;;;;;51.47;25.23;;;14.10;76.00;;;;;;5092246;28;20098;-77
2022/04/24 05:02:07;;;;;;;44.17;23.52;;;14.20;75.70;;;;;;5054038;28;20029;-78
2022/04/24 05:04:43;;;;;;;;;;;;;;;;;;;;;
2022/04/24 05:07:11;;;;;;;49.67;24.50;;;14.20;75.30;;;;;;5071638;28;20024;-77
2022/04/24 05:09:36;;;;;;;47.58;23.50;;;14.20;75.60;;;;;;5068182;28;20084;-77
2022/04/24 05:12:02;;;;;;;48.70;24.02;;;14.20;75.40;;;;;;5071840;28;20533;-78
2022/04/24 05:14:39;;;;;;;50.08;24.27;;;14.20;75.30;;;;;;5065986;28;20025;-77
2022/04/24 05:17:05;;;;;;;49.40;25.00;;;14.20;75.50;;;;;;5067059;28;20078;-78
2022/04/24 05:19:30;;;;;;;50.78;23.60;;;14.10;76.10;;;;;;5068732;28;20052;-78
2022/04/24 05:21:56;;;;;;;49.70;23.50;;;14.10;76.10;;;;;;5091417;28;20036;-78
2022/04/24 05:24:22;;;;;;;53.00;25.23;;;14.00;76.20;;;;;;5082310;28;20163;-78
2022/04/24 05:26:47;;;;;;;50.15;22.83;;;13.90;77.10;;;;;;5071808;28;20494;-78
2022/04/24 05:29:14;;;;;;;44.05;23.23;;;13.90;77.20;;;;;;5071382;28;20490;-78
2022/04/24 05:31:40;;;;;;;45.70;22.52;;;14.00;76.90;;;;;;5071287;28;20461;-78
2022/04/24 05:34:05;;;;;;;43.35;21.95;;;14.10;76.40;;;;;;5071227;28;20064;-78
2022/04/24 05:36:31;;;;;;;45.80;23.27;;;14.10;76.40;;;;;;5079036;28;20028;-78
2022/04/24 05:38:57;;;;;;;43.17;22.85;;;14.10;76.40;;;;;;5071912;28;20060;-78
2022/04/24 05:41:22;;;;;;;43.08;23.70;;;14.20;76.40;;;;;;5070212;28;20029;-77
2022/04/24 05:43:48;;;;;;;44.88;23.02;;;14.20;76.20;;;;;;5070919;28;20037;-78
2022/04/24 05:46:13;;;;;;;48.80;22.48;;;14.30;76.00;;;;;;5071542;28;20048;-78
2022/04/24 05:48:39;;;;;;;47.85;23.58;;;14.30;76.10;;;;;;5070028;28;20036;-78
2022/04/24 05:51:05;;;;;;;45.90;22.60;;;14.40;75.70;;;;;;5070724;28;20060;-78
2022/04/24 05:53:30;;;;;;;50.92;26.30;;;14.40;75.50;;;;;;5055929;28;20082;-78
2022/04/24 05:55:57;;;;;;;51.42;24.35;;;14.40;75.50;;;;;;5058518;28;20032;-78
2022/04/24 05:58:22;;;;;;;44.85;23.08;;;14.50;75.20;;;;;;5057882;28;20071;-78
2022/04/24 06:00:48;;;;;;;51.38;23.67;;;14.50;75.20;;;;;;5056654;28;20021;-78
2022/04/24 06:03:14;;;;;;;35.70;22.25;;;14.60;74.70;;;;;;5057816;28;20159;-78
2022/04/24 06:05:40;;;;;;;44.88;23.02;;;14.70;74.70;;;;;;5051125;28;20507;-78
2022/04/24 06:08:05;;;;;;;49.15;23.65;;;14.70;74.70;;;;;;5071761;28;20497;-78
2022/04/24 06:10:31;;;;;;;46.10;22.98;;;14.70;74.60;;;;;;5052947;28;20050;-78
2022/04/24 06:12:57;;;;;;;48.63;24.08;;;14.70;74.50;;;;;;5071945;28;20440;-78
2022/04/24 06:15:25;;;;;;;38.67;21.67;;;14.70;74.80;;;;;;5077461;28;20028;-78
2022/04/24 06:17:52;;;;;;;42.88;21.58;;;14.60;74.70;;;;;;5062120;28;20206;-78
2022/04/24 06:20:20;;;;;;;43.25;22.65;;;14.60;74.30;;;;;;5050806;28;20512;-78
2022/04/24 06:22:55;;;;;;;43.08;22.48;;;14.70;74.80;;;;;;5056447;28;20036;-78
2022/04/24 06:25:22;;;;;;;47.17;22.25;;;14.70;74.60;;;;;;5057157;28;20025;-78
2022/04/24 06:27:49;;;;;;;46.80;23.38;;;14.70;74.80;;;;;;5057105;28;20474;-78
2022/04/24 06:30:16;;;;;;;43.33;23.10;;;14.70;74.40;;;;;;5057440;28;20032;-78
2022/04/24 06:32:43;;;;;;;51.58;24.83;;;14.80;74.20;;;;;;5064172;28;20043;-77
2022/04/24 06:35:11;;;;;;;47.80;21.73;;;14.70;74.30;;;;;;5077278;28;20074;-76
2022/04/24 07:00:22;;;;;;;37.63;19.73;;;13.30;80.40;;;;;;5113748;27;20382;-79
2022/04/24 07:02:48;;;;;;;;;;;13.50;80.50;;;;;;5108617;28;20032;-82
2022/04/24 07:05:14;;;;;;;44.55;22.70;;;13.80;79.70;;;;;;5110287;28;19996;-79
2022/04/24 07:07:41;;;;;;;45.60;21.63;;;14.20;78.50;;;;;;5108613;28;20019;-86
2022/04/24 07:10:07;;;;;;;41.35;22.02;;;14.60;77.20;;;;;;5109227;28;20059;-85
2022/04/24 07:12:46;;;;;;;48.00;23.23;;;14.90;76.20;;;;;;5120793;28;20027;-86
2022/04/24 07:15:13;;;;;;;42.15;21.08;;;15.10;75.10;;;;;;5101479;27;20028;-82
2022/04/24 07:17:41;;;;;;;50.17;22.45;;;15.40;74.80;;;;;;5115186;27;20031;-84
2022/04/24 07:20:10;;;;;;;43.30;21.45;;;15.60;74.30;;;;;;5125095;28;20373;-83
2022/04/24 07:22:45;;;;;;;44.00;21.75;;;15.70;74.00;;;;;;5124019;28;20066;-88
2022/04/24 07:25:12;;;;;;;42.10;22.95;;;15.70;73.70;;;;;;5107635;27;20056;-85
2022/04/24 07:27:39;;;;;;;42.20;22.23;;;15.80;73.20;;;;;;5107987;28;20576;-85
2022/04/24 07:30:05;;;;;;;45.33;22.83;;;16.00;72.70;;;;;;5099253;28;20028;-85
2022/04/24 07:32:38;;;;;;;38.42;21.25;;;16.10;72.50;;;;;;5101767;28;20471;-88
2022/04/24 07:35:04;;;;;;;42.05;22.15;;;16.40;71.70;;;;;;5110729;28;20076;-82
2022/04/24 07:37:32;;;;;;;46.42;22.20;;;16.80;70.90;;;;;;5110168;28;20051;-88
2022/04/24 07:39:58;;;;;;;34.25;20.05;;;17.20;69.70;;;;;;5111270;28;20499;-79
2022/04/24 07:42:24;;;;;;;38.95;20.17;;;17.60;68.40;;;;;;5110877;28;20111;-80
2022/04/24 07:47:18;;;;;;;33.80;20.25;;;19.00;64.20;;;;;;5094193;27;20463;-82
2022/04/24 07:49:44;;;;;;;33.72;19.23;;;19.70;62.40;;;;;;5092524;28;20055;-80
2022/04/24 07:52:09;;;;;;;29.08;18.25;;;20.20;60.70;;;;;;5089387;28;20035;-82
2022/04/24 07:54:35;;;;;;;31.90;19.15;;;21.40;57.40;;;;;;5082237;28;20052;-78
2022/04/24 07:57:01;;;;;;;30.40;18.73;;;22.70;54.70;;;;;;5086499;28;20025;-80
2022/04/24 07:59:26;;;;;;;30.25;19.42;;;23.40;52.20;;;;;;5090316;28;20039;-76
2022/04/24 08:01:52;;;;;;;30.33;17.85;;;23.80;50.70;;;;;;5091584;28;20019;-86
2022/04/24 08:04:18;;;;;;;28.83;19.05;;;25.20;48.10;;;;;;5091744;28;20028;-77
2022/04/24 08:06:43;;;;;;;21.90;16.27;;;26.50;45.50;;;;;;5091234;28;20028;-83
2022/04/24 08:09:09;;;;;;;25.13;17.52;;;27.60;43.30;;;;;;5088476;28;20115;-84
2022/04/24 08:11:35;;;;;;;21.90;16.55;;;28.70;40.50;;;;;;5087686;28;20039;-84
2022/04/24 08:14:00;;;;;;;24.52;17.05;;;29.40;38.30;;;;;;5088531;28;20150;-84
2022/04/24 08:16:27;;;;;;;26.13;18.00;;;29.70;37.70;;;;;;5091745;28;20020;-80
2022/04/24 08:18:59;;;;;;;26.23;18.10;;;29.80;37.50;;;;;;5091965;28;20382;-80
2022/04/24 08:21:25;;;;;;;21.55;16.60;;;30.60;35.90;;;;;;5087325;28;20020;-84
2022/04/24 08:23:50;;;;;;;22.13;17.33;;;30.90;35.10;;;;;;5092869;28;20512;-84
2022/04/24 08:26:16;;;;;;;24.63;17.20;;;31.40;34.50;;;;;;5090014;28;20031;-84
2022/04/24 08:28:41;;;;;;;24.38;16.60;;;31.10;33.90;;;;;;5090309;28;20029;-83
2022/04/24 08:31:07;;;;;;;24.40;15.52;;;29.20;36.40;;;;;;5089964;28;20024;-84
2022/04/24 08:33:33;;;;;;;22.05;15.23;;;27.80;38.20;;;;;;5090470;28;20082;-83
2022/04/24 08:35:58;;;;;;;25.42;14.90;;;26.80;40.20;;;;;;5087014;28;20078;-82
2022/04/24 08:38:24;;;;;;;21.27;15.15;;;26.00;41.80;;;;;;5086036;28;20042;-82
2022/04/24 08:40:52;;;;;;;23.73;15.30;;;25.60;42.40;;;;;;5111669;28;20027;-82
2022/04/24 08:43:19;;;;;;;21.02;14.48;;;25.50;42.50;;;;;;5111798;28;20700;-82
2022/04/24 08:45:49;;;;;;;25.10;15.10;;;25.30;42.80;;;;;;5072505;28;20059;-81
2022/04/24 08:48:15;;;;;;;22.10;14.15;;;24.90;44.30;;;;;;5087211;28;20039;-81
2022/04/24 08:50:42;;;;;;;23.80;14.10;;;24.40;44.90;;;;;;5083226;28;20028;-81
2022/04/24 08:53:08;;;;;;;22.63;15.32;;;24.00;45.90;;;;;;5090635;28;20027;-81
2022/04/24 08:55:34;;;;;;;26.95;15.73;;;23.70;45.90;;;;;;5090030;28;20052;-82
2022/04/24 08:58:00;;;;;;;28.67;15.85;;;23.60;47.40;;;;;;5079354;28;20102;-81
2022/04/24 09:00:27;;;;;;;29.63;15.82;;;23.30;48.10;;;;;;5073025;28;20028;-82
2022/04/24 09:02:53;;;;;;;25.08;16.38;;;23.30;49.00;;;;;;5077728;28;20028;-82
2022/04/24 09:05:21;;;;;;;21.25;14.05;;;23.50;48.90;;;;;;5076730;28;20028;-81
2022/04/24 09:07:47;;;;;;;27.58;15.57;;;23.80;48.60;;;;;;5066019;28;20116;-78
2022/04/24 09:10:13;;;;;;;23.73;15.20;;;23.90;47.50;;;;;;5065550;28;20052;-76
2022/04/24 09:12:40;;;;;;;21.42;14.43;;;24.10;47.70;;;;;;5092458;28;20493;-82
2022/04/24 09:15:07;;;;;;;17.65;12.35;;;24.40;47.70;;;;;;5077813;28;20687;-77
2022/04/24 09:17:33;;;;;;;22.10;12.65;;;24.70;47.10;;;;;;5075807;28;20028;-77
2022/04/24 09:20:00;;;;;;;18.15;12.43;;;24.50;46.60;;;;;;5077878;28;20115;-77
2022/04/24 09:22:26;;;;;;;16.00;11.27;;;24.30;46.30;;;;;;5065317;28;20085;-79
2022/04/24 09:24:56;;;;;;;18.33;10.50;;;24.10;45.90;;;;;;5057849;28;20025;-76
2022/04/24 09:27:34;;;;;;;20.98;12.50;;;24.00;46.20;;;;;;5077066;28;20071;-76
2022/04/24 09:30:04;;;;;;;17.83;11.70;;;23.80;47.20;;;;;;5076271;28;20093;-77
2022/04/24 09:32:39;;;;;;;18.13;11.60;;;23.80;47.20;;;;;;5070712;28;20025;-74
2022/04/24 09:35:05;;;;;;;20.73;11.80;;;23.70;47.60;;;;;;5057324;28;20025;-75
2022/04/24 09:37:41;;;;;;;66.40;15.73;;;23.60;47.90;;;;;;5057357;28;20090;-76
2022/04/24 09:40:07;;;;;;;18.27;11.70;;;23.50;48.10;;;;;;5073778;28;20410;-75
2022/04/24 09:42:33;;;;;;;19.27;13.45;;;24.30;47.50;;;;;;5074038;28;20033;-78
2022/04/24 09:45:01;;;;;;;19.02;12.93;;;24.90;45.20;;;;;;5076061;28;20031;-77
2022/04/24 09:47:27;;;;;;;16.98;12.65;;;24.80;45.30;;;;;;5070515;28;20145;-75
2022/04/24 09:49:53;;;;;;;20.08;12.82;;;24.70;45.60;;;;;;5056859;28;20029;-76
2022/04/24 09:52:24;;;;;;;20.75;13.60;;;24.60;46.00;;;;;;5075837;28;20035;-80
2022/04/24 09:54:54;;;;;;;19.88;12.73;;;24.70;46.00;;;;;;5074891;28;20027;-80
2022/04/24 09:57:27;;;;;;;23.60;12.70;;;25.20;44.80;;;;;;5073855;28;20379;-82
2022/04/24 09:59:53;;;;;;;19.38;12.27;;;25.30;44.60;;;;;;5065309;28;20556;-82
2022/04/24 10:02:20;;;;;;;22.40;11.85;;;25.80;44.20;;;;;;5076837;28;20027;-81
2022/04/24 10:04:47;;;;;;;19.73;12.05;;;26.00;43.80;;;;;;5073841;28;20376;-81
2022/04/24 10:07:15;;;;;;;19.65;12.73;;;25.80;44.20;;;;;;5071242;28;20051;-80
2022/04/24 10:09:43;;;;;;;20.25;11.38;;;25.50;44.00;;;;;;5069682;28;20081;-81
2022/04/24 10:12:09;;;;;;;18.42;12.15;;;25.50;44.10;;;;;;5082440;28;20032;-81
2022/04/24 10:14:53;;;;;;;20.80;12.73;;;25.60;44.20;;;;;;5075488;28;20024;-81
2022/04/24 10:17:27;;;;;;;22.48;13.45;;;25.60;43.60;;;;;;5066859;28;20437;-81
2022/04/24 10:20:16;;;;;;;24.77;13.57;;;25.80;44.10;;;;;;5055756;28;20100;-80
2022/04/24 10:22:50;;;;;;;19.37;13.67;;;25.90;44.00;;;;;;5068172;28;20064;-81
2022/04/24 10:25:16;;;;;;;21.60;12.50;;;25.70;44.40;;;;;;5061034;28;20107;-82
2022/04/24 10:27:43;;;;;;;22.25;12.70;;;25.20;44.90;;;;;;5072774;28;20104;-89
2022/04/24 10:30:23;;;;;;;18.95;12.13;;;24.80;46.10;;;;;;5064398;28;20115;-87
2022/04/24 10:32:49;;;;;;;;;;;24.60;46.50;;;;;;5072802;28;20150;-88
2022/04/24 10:35:19;;;;;;;21.65;13.20;;;24.50;46.60;;;;;;5075621;28;20057;-88
2022/04/24 10:37:49;;;;;;;22.70;12.60;;;24.30;47.20;;;;;;5075472;28;20403;-85
2022/04/24 10:40:17;;;;;;;21.98;12.57;;;24.30;47.60;;;;;;5073503;28;20044;-84
2022/04/24 10:42:43;;;;;;;18.35;12.23;;;24.30;48.10;;;;;;5072549;28;20024;-79
2022/04/24 10:45:19;;;;;;;19.63;12.07;;;24.20;47.60;;;;;;5073377;28;20377;-84
2022/04/24 10:47:55;;;;;;;19.40;11.85;;;24.00;48.60;;;;;;5066853;28;20050;-84
2022/04/24 10:50:22;;;;;;;20.98;12.95;;;23.80;48.60;;;;;;5072194;28;20032;-86
2022/04/24 10:52:52;;;;;;;21.60;13.13;;;23.50;49.20;;;;;;5075303;28;20107;-81
2022/04/24 10:55:23;;;;;;;21.40;12.60;;;23.20;50.10;;;;;;5076272;28;20036;-87
2022/04/24 10:57:54;;;;;;;16.08;11.27;;;23.10;50.50;;;;;;5078183;28;20029;-83
2022/04/24 11:00:26;;;;;;;19.90;12.13;;;22.90;50.30;;;;;;5073000;28;20112;-84
2022/04/24 11:02:52;;;;;;;17.75;11.85;;;22.70;50.70;;;;;;5085421;28;20048;-85
2022/04/24 11:05:20;;;;;;;17.80;11.60;;;22.60;50.20;;;;;;5055717;28;20092;-82
2022/04/24 11:07:47;;;;;;;19.80;11.23;;;22.40;51.00;;;;;;5055878;28;20020;-86
2022/04/24 11:10:14;;;;;;;18.23;11.77;;;22.20;50.60;;;;;;5055944;28;20159;-86
2022/04/24 11:12:40;;;;;;;19.48;12.38;;;22.00;50.70;;;;;;5070336;28;20016;-88
2022/04/24 11:15:09;;;;;;;19.80;12.32;;;21.90;51.30;;;;;;5070260;28;20496;-88
2022/04/24 11:17:35;;;;;;;17.55;10.98;;;22.00;51.90;;;;;;5076154;28;20029;-87
2022/04/24 11:20:08;;;;;;;18.10;11.15;;;21.80;51.90;;;;;;5075393;28;20031;-89
2022/04/24 11:22:43;;;;;;;16.52;10.10;;;21.80;52.10;;;;;;5069917;28;20028;-88
2022/04/24 11:25:15;;;;;;;17.35;11.32;;;21.60;51.60;;;;;;5075535;28;20026;-81
2022/04/24 11:27:44;;;;;;;17.48;10.77;;;21.50;52.30;;;;;;5075512;28;20024;-84
2022/04/24 11:30:18;;;;;;;22.70;12.25;;;21.30;53.20;;;;;;5078780;28;20080;-88
2022/04/24 11:32:55;;;;;;;21.20;12.73;;;21.30;54.30;;;;;;5054017;28;20071;-82
2022/04/24 11:35:21;;;;;;;22.50;12.80;;;21.20;56.60;;;;;;5054450;28;20039;-79
2022/04/24 11:37:47;;;;;;;29.55;13.82;;;21.10;58.60;;;;;;5063820;28;20111;-87
2022/04/24 11:40:13;;;;;;;26.48;14.27;;;21.00;59.70;;;;;;5073513;28;20054;-87
2022/04/24 11:42:39;;;;;;;29.92;15.55;;;20.90;61.50;;;;;;5069974;28;20037;-87
2022/04/24 11:50:53;;;;;;;28.25;13.25;;;20.50;64.00;;;;;;5070321;28;20027;-83
2022/04/24 11:53:22;;;;;;;28.58;13.27;;;20.60;63.30;;;;;;5065619;28;20091;-82
2022/04/24 11:56:01;;;;;;;23.13;13.52;;;20.50;64.10;;;;;;5072224;28;20256;-83
2022/04/24 11:58:38;;;;;;;22.17;13.20;;;20.50;64.60;;;;;;5069611;28;20405;-82
2022/04/24 12:01:09;;;;;;;24.63;14.02;;;20.50;64.70;;;;;;5067750;28;20035;-84
2022/04/24 12:03:37;;;;;;;26.73;13.85;;;20.60;64.60;;;;;;5067573;28;20029;-86
2022/04/24 12:06:05;;;;;;;22.08;12.95;;;20.50;65.50;;;;;;5070339;28;20464;-80
2022/04/24 12:08:43;;;;;;;19.83;12.82;;;20.50;64.90;;;;;;5070102;28;20025;-86
2022/04/24 12:11:11;;;;;;;17.25;11.05;;;20.40;64.50;;;;;;5070094;28;20059;-86
2022/04/24 12:13:37;;;;;;;21.05;13.98;;;20.50;64.80;;;;;;5069546;28;20021;-83
2022/04/24 12:16:03;;;;;;;15.60;10.90;;;20.60;64.50;;;;;;5072141;28;20663;-87
2022/04/24 12:18:28;;;;;;;21.38;12.77;;;20.70;64.30;;;;;;5070954;28;20028;-88
2022/04/24 12:20:54;;;;;;;18.23;11.02;;;20.80;63.90;;;;;;5072582;28;20154;-77
2022/04/24 12:23:21;;;;;;;17.15;11.52;;;20.80;63.90;;;;;;5072266;28;20060;-81
2022/04/24 12:25:55;;;;;;;19.17;12.32;;;20.90;63.30;;;;;;5070029;28;20112;-81
2022/04/24 12:28:31;;;;;;;19.05;10.05;;;21.30;62.30;;;;;;5070965;28;20017;-81
2022/04/24 12:30:58;;;;;;;14.05;8.35;;;21.40;61.80;;;;;;5071077;28;20814;-81
2022/04/24 12:33:24;;;;;;;20.63;10.18;;;21.60;60.60;;;;;;5071078;28;20013;-81
2022/04/24 12:35:50;;;;;;;18.23;11.38;;;21.80;60.00;;;;;;5076775;28;20557;-81
2022/04/24 12:38:18;;;;;;;17.55;11.02;;;22.00;59.30;;;;;;5073437;28;20113;-81
2022/04/24 12:40:59;;;;;;;22.88;12.15;;;22.10;59.30;;;;;;5071650;28;20032;-81
2022/04/24 12:43:30;;;;;;;18.60;10.73;;;22.20;58.60;;;;;;5069071;28;20039;-80
2022/04/24 12:45:57;;;;;;;18.60;11.68;;;22.10;57.50;;;;;;5061692;28;20094;-81
2022/04/24 12:48:23;;;;;;;19.67;10.90;;;22.00;58.10;;;;;;5072655;28;20062;-77
2022/04/24 12:50:53;;;;;;;17.20;10.48;;;22.00;58.50;;;;;;5071663;28;20108;-78
2022/04/24 12:53:19;;;;;;;16.30;10.10;;;22.00;58.20;;;;;;5076339;28;20437;-77
2022/04/24 12:55:46;;;;;;;15.65;10.60;;;21.70;58.20;;;;;;5070639;28;20066;-77
2022/04/24 12:58:14;;;;;;;20.73;11.68;;;21.40;58.70;;;;;;5072299;28;20040;-77
2022/04/24 13:00:45;;;;;;;19.95;10.95;;;21.30;58.20;;;;;;5076090;28;20127;-77
2022/04/24 13:03:15;;;;;;;18.65;11.00;;;21.20;59.00;;;;;;5076496;28;20017;-77
2022/04/24 13:05:42;;;;;;;19.25;11.98;;;21.20;58.30;;;;;;5075890;28;20109;-77
2022/04/24 13:08:09;;;;;;;17.42;10.70;;;20.80;59.00;;;;;;5066704;28;20050;-77
2022/04/24 13:10:34;;;;;;;17.45;11.75;;;20.70;58.30;;;;;;5074967;28;20020;-77
2022/04/24 13:13:01;;;;;;;19.30;11.27;;;20.60;59.60;;;;;;5075390;28;20025;-77